Time;durP1;ratioP1;P1;durP2;ratioP2;P2;SDS_P1;SDS_P2;PMS_P1;PMS_P2;Temp;Humidity;BMP_temperature;BMP_pressure;BME280_temperature;BME280_humidity;BME280_pressure;Samples;Min_cycle;Max_cycle;Signal;HPM_P1;HPM_P2
2023/07/28 00:00:06;;;;;;;;;;;;;;;17.82;42.03;99540.16;4869681;28;98463;-73
2023/07/28 00:02:32;;;;;;;;;;;;;;;17.83;41.83;99544.47;4889884;28;98097;-80
2023/07/28 00:04:59;;;;;;;;;;;;;;;17.83;41.92;99533.56;4890826;28;98451;-79
2023/07/28 00:07:26;;;;;;;;;;;;;;;17.84;41.92;99529.72;4870385;28;98313;-73
2023/07/28 00:09:52;;;;;;;;;;;;;;;17.84;41.89;99529.72;4885808;28;100012;-72
2023/07/28 00:12:18;;;;;;;;;;;;;;;17.84;41.88;99531.63;4872559;28;98154;-73
2023/07/28 00:14:45;;;;;;;;;;;;;;;17.84;41.89;99527.00;4900408;28;98370;-79
2023/07/28 00:17:12;;;;;;;;;;;;;;;17.85;42.12;99525.88;4904427;28;98172;-73
2023/07/28 00:19:38;;;;;;;;;;;;;;;17.85;41.94;99514.16;4910537;28;97940;-73
2023/07/28 00:22:05;;;;;;;;;;;;;;;17.85;42.11;99514.16;4905160;28;98895;-80
2023/07/28 00:24:31;;;;;;;;;;;;;;;17.85;41.90;99516.91;4880397;28;99971;-73
2023/07/28 00:26:57;;;;;;;;;;;;;;;17.86;41.89;99513.81;4892658;28;98352;-73
2023/07/28 00:29:24;;;;;;;;;;;;;;;17.87;41.93;99506.44;4874093;28;98231;-79
2023/07/28 00:31:51;;;;;;;;;;;;;;;17.87;42.09;99507.22;4890779;28;98142;-79
2023/07/28 00:34:18;;;;;;;;;;;;;;;17.88;41.95;99508.03;4901021;28;98694;-79
2023/07/28 00:36:44;;;;;;;;;;;;;;;17.88;42.13;99511.56;4892396;28;98465;-73
2023/07/28 00:39:11;;;;;;;;;;;;;;;17.89;42.07;99515.09;4866043;28;99494;-73
2023/07/28 00:41:37;;;;;;;;;;;;;;;17.90;41.87;99506.56;4870185;28;98524;-79
2023/07/28 00:44:04;;;;;;;;;;;;;;;17.91;42.05;99504.63;4888195;28;99177;-73
2023/07/28 00:46:31;;;;;;;;;;;;;;;17.91;42.06;99507.34;4882750;28;98098;-80
2023/07/28 00:48:57;;;;;;;;;;;;;;;17.90;42.08;99506.56;4887105;28;98193;-73
2023/07/28 00:51:23;;;;;;;;;;;;;;;17.91;41.96;99501.91;4888838;28;98358;-79
2023/07/28 00:53:50;;;;;;;;;;;;;;;17.92;41.92;99506.22;4876966;28;98653;-80
2023/07/28 00:56:17;;;;;;;;;;;;;;;17.93;41.93;99501.56;4883344;28;98320;-79
2023/07/28 00:58:43;;;;;;;;;;;;;;;17.94;42.08;99505.88;4880237;28;98091;-80
2023/07/28 01:01:11;;;;;;;;;;;;;;;17.92;42.05;99498.06;4884753;28;99511;-79
2023/07/28 01:03:39;;;;;;;;;;;;;;;17.93;42.03;99502.38;4905271;28;98423;-79
2023/07/28 01:06:32;;;;;;;;;;;;;;;17.93;42.01;99502.38;4883244;28;99341;-79
2023/07/28 01:09:06;;;;;;;;;;;;;;;17.94;42.10;99498.50;4904631;28;97962;-79
2023/07/28 01:11:32;;;;;;;;;;;;;;;17.95;42.04;99497.34;4890422;28;99373;-73
2023/07/28 01:13:59;;;;;;;;;;;;;;;17.96;42.02;99495.41;4890599;28;98847;-73
2023/07/28 01:16:26;;;;;;;;;;;;;;;17.97;42.01;99497.81;4886188;28;100630;-80
2023/07/28 01:18:52;;;;;;;;;;;;;;;17.99;42.07;99497.47;4883718;28;98385;-79
2023/07/28 01:21:23;;;;;;;;;;;;;;;17.99;42.04;99495.53;4899303;28;98291;-72
2023/07/28 01:24:05;;;;;;;;;;;;;;;17.99;41.98;99495.53;4871815;28;99336;-73
2023/07/28 01:26:37;;;;;;;;;;;;;;;18.00;42.23;99494.44;4898715;28;98147;-79
2023/07/28 01:29:06;;;;;;;;;;;;;;;18.03;42.02;99496.44;4903021;28;98188;-73
2023/07/28 01:31:33;;;;;;;;;;;;;;;18.04;42.00;99491.81;4903324;28;98146;-80
2023/07/28 01:33:59;;;;;;;;;;;;;;;18.06;42.15;99486.81;4885214;28;98388;-73
2023/07/28 01:36:27;;;;;;;;;;;;;;;18.05;42.09;99486.00;4874869;28;98558;-80
2023/07/28 01:38:54;;;;;;;;;;;;;;;18.06;42.21;99487.59;4881544;28;98245;-80
2023/07/28 01:41:20;;;;;;;;;;;;;;;18.07;41.98;99486.44;4870734;28;98911;-73
2023/07/28 01:43:46;;;;;;;;;;;;;;;18.06;42.01;99475.91;4905232;28;98192;-73
2023/07/28 01:46:12;;;;;;;;;;;;;;;18.05;41.91;99480.56;4887627;28;99995;-73
2023/07/28 01:48:39;;;;;;;;;;;;;;;18.06;42.35;99484.88;4906345;28;98282;-80
2023/07/28 01:51:05;;;;;;;;;;;;;;;18.06;42.17;99475.91;4891378;28;98527;-73
2023/07/28 01:53:31;;;;;;;;;;;;;;;18.06;41.98;99479.41;4904404;28;98323;-73
2023/07/28 01:55:58;;;;;;;;;;;;;;;18.06;42.10;99487.59;4887566;28;98114;-80
2023/07/28 01:58:24;;;;;;;;;;;;;;;18.08;41.99;99484.53;4900018;28;98050;-72
2023/07/28 02:00:51;;;;;;;;;;;;;;;18.08;41.91;99492.72;4901748;28;100325;-72
2023/07/28 02:03:18;;;;;;;;;;;;;;;18.08;42.12;99490.78;4891349;28;98679;-72
2023/07/28 02:05:45;;;;;;;;;;;;;;;18.08;42.10;99479.88;4888580;28;100150;-73
2023/07/28 02:08:11;;;;;;;;;;;;;;;18.09;42.31;99481.47;4883063;28;98233;-72
2023/07/28 02:10:39;;;;;;;;;;;;;;;18.10;42.29;99488.50;4896110;28;98437;-72
2023/07/28 02:13:06;;;;;;;;;;;;;;;18.11;42.11;99494.75;4896596;28;98464;-79
2023/07/28 02:15:34;;;;;;;;;;;;;;;18.12;42.33;99497.16;4892004;28;98304;-79
2023/07/28 02:18:02;;;;;;;;;;;;;;;18.12;42.16;99488.19;4879783;28;98955;-80
2023/07/28 02:20:29;;;;;;;;;;;;;;;18.12;42.18;99488.19;4866564;28;98224;-80
2023/07/28 02:22:56;;;;;;;;;;;;;;;18.13;42.10;99484.31;4869551;28;100317;-73
2023/07/28 02:25:22;;;;;;;;;;;;;;;18.12;42.31;99486.25;4875013;28;98675;-72
2023/07/28 02:27:51;;;;;;;;;;;;;;;18.13;42.24;99482.38;4906710;28;98256;-79
2023/07/28 02:30:17;;;;;;;;;;;;;;;18.13;42.22;99487.81;4893746;28;98317;-79
2023/07/28 02:32:44;;;;;;;;;;;;;;;18.14;42.25;99489.41;4899194;28;98302;-79
2023/07/28 02:35:12;;;;;;;;;;;;;;;18.15;42.35;99487.47;4904678;28;98807;-79
2023/07/28 02:37:38;;;;;;;;;;;;;;;18.15;42.28;99488.28;4905428;28;98255;-79
2023/07/28 02:40:05;;;;;;;;;;;;;;;18.16;42.23;99480.91;4905840;28;98279;-72
2023/07/28 02:42:33;;;;;;;;;;;;;;;18.17;42.27;99482.50;4883605;28;98063;-71
2023/07/28 02:44:59;;;;;;;;;;;;;;;18.16;42.19;99475.44;4888670;28;98095;-77
2023/07/28 02:47:25;;;;;;;;;;;;;;;18.15;42.27;99474.63;4874672;28;99676;-71
2023/07/28 02:49:53;;;;;;;;;;;;;;;18.15;42.22;99479.28;4894398;28;98582;-77
2023/07/28 02:52:24;;;;;;;;;;;;;;;18.15;42.34;99479.28;4873439;28;98139;-79
2023/07/28 02:54:51;;;;;;;;;;;;;;;18.14;42.22;99483.97;4889037;28;98278;-79
2023/07/28 02:57:17;;;;;;;;;;;;;;;18.14;42.30;99466.81;4867325;28;98358;-71
2023/07/28 02:59:44;;;;;;;;;;;;;;;18.14;42.25;99473.06;4877696;28;98221;-78
2023/07/28 03:02:10;;;;;;;;;;;;;;;18.13;42.42;99476.91;4881626;28;98606;-71
2023/07/28 03:04:36;;;;;;;;;;;;;;;18.13;42.27;99468.75;4881931;28;98780;-72
2023/07/28 03:07:05;;;;;;;;;;;;;;;18.12;42.28;99467.16;4889689;28;108605;-79
2023/07/28 03:09:31;;;;;;;;;;;;;;;18.12;42.64;99461.72;4906654;28;98517;-78
2023/07/28 03:11:58;;;;;;;;;;;;;;;18.13;42.49;99476.13;4902038;28;98379;-78
2023/07/28 03:14:25;;;;;;;;;;;;;;;18.12;42.32;99472.59;4888401;28;101278;-72
2023/07/28 03:16:52;;;;;;;;;;;;;;;18.11;42.33;99481.13;4907934;28;98964;-72
2023/07/28 03:19:19;;;;;;;;;;;;;;;18.13;42.55;99485.09;4884575;28;98143;-72
2023/07/28 03:21:46;;;;;;;;;;;;;;;18.13;42.38;99482.38;4877570;28;99782;-72
2023/07/28 03:24:13;;;;;;;;;;;;;;;18.14;42.42;99480.44;4891673;28;98057;-79
2023/07/28 03:26:39;;;;;;;;;;;;;;;18.15;42.33;99487.47;4907760;28;98197;-72
2023/07/28 03:29:06;;;;;;;;;;;;;;;18.15;42.42;99485.53;4871197;28;99484;-80
2023/07/28 03:31:35;;;;;;;;;;;;;;;18.18;42.28;99488.75;4879082;28;98237;-79
2023/07/28 03:34:03;;;;;;;;;;;;;;;18.18;42.31;99486.81;4876479;28;99809;-72
2023/07/28 03:36:32;;;;;;;;;;;;;;;18.19;42.47;99490.31;4904702;28;98218;-78
2023/07/28 03:38:58;;;;;;;;;;;;;;;18.20;42.41;99491.94;4873295;28;98542;-72
2023/07/28 03:41:25;;;;;;;;;;;;;;;18.21;42.40;99479.88;4886973;28;98505;-79
2023/07/28 03:43:51;;;;;;;;;;;;;;;18.22;42.44;99481.47;4887283;28;97897;-72
2023/07/28 03:46:18;;;;;;;;;;;;;;;18.23;42.49;99475.66;4906939;28;98189;-73
2023/07/28 03:48:45;;;;;;;;;;;;;;;18.24;42.49;99481.94;4889478;28;98573;-72
2023/07/28 03:51:11;;;;;;;;;;;;;;;18.24;42.50;99485.44;4891467;28;97963;-72
2023/07/28 03:53:38;;;;;;;;;;;;;;;18.25;42.60;99494.41;4905838;28;100382;-72
2023/07/28 03:56:05;;;;;;;;;;;;;;;18.26;42.42;99487.81;4886876;28;98114;-79
2023/07/28 03:58:32;;;;;;;;;;;;;;;18.27;42.35;99478.50;4893849;28;98633;-80
2023/07/28 04:00:58;;;;;;;;;;;;;;;18.28;42.40;99486.34;4914848;28;98337;-72
2023/07/28 04:03:25;;;;;;;;;;;;;;;18.28;42.37;99486.34;4914450;28;99477;-79
2023/07/28 04:05:52;;;;;;;;;;;;;;;18.30;42.38;99496.91;4893432;28;100202;-79
2023/07/28 04:08:18;;;;;;;;;;;;;;;18.30;42.48;99484.06;4896107;28;98668;-79
2023/07/28 04:10:45;;;;;;;;;;;;;;;18.32;42.38;99487.25;4874106;28;101206;-79
2023/07/28 04:13:11;;;;;;;;;;;;;;;18.35;42.45;99489.31;4875548;28;98273;-79
2023/07/28 04:15:37;;;;;;;;;;;;;;;18.37;42.32;99488.94;4875137;28;98595;-79
2023/07/28 04:18:05;;;;;;;;;;;;;;;18.40;42.33;99497.25;4869232;28;98368;-78
2023/07/28 04:20:32;;;;;;;;;;;;;;;18.42;42.26;99491.44;4919931;28;98456;-79
2023/07/28 04:22:59;;;;;;;;;;;;;;;18.46;42.52;99497.00;4886163;28;98151;-73
2023/07/28 04:25:26;;;;;;;;;;;;;;;18.48;42.31;99500.19;4874359;28;98075;-72
2023/07/28 04:27:53;;;;;;;;;;;;;;;18.50;42.28;99498.69;4889338;28;98122;-72
2023/07/28 04:30:19;;;;;;;;;;;;;;;18.56;42.25;99494.63;4873848;28;98255;-78
2023/07/28 04:32:46;;;;;;;;;;;;;;;18.59;42.24;99496.66;4889846;28;99059;-72
2023/07/28 04:35:13;;;;;;;;;;;;;;;18.60;42.23;99509.16;4904667;28;98330;-72
2023/07/28 04:37:41;;;;;;;;;;;;;;;18.62;42.27;99504.13;4885003;28;98388;-79
2023/07/28 04:40:09;;;;;;;;;;;;;;;18.63;42.24;99496.78;4884320;28;98199;-79
2023/07/28 04:42:36;;;;;;;;;;;;;;;18.62;42.41;99501.41;4893897;28;100436;-78
2023/07/28 04:45:03;;;;;;;;;;;;;;;18.65;42.42;99494.47;4881995;28;97938;-79
2023/07/28 04:47:31;;;;;;;;;;;;;;;18.67;42.47;99500.41;4896691;28;98154;-78
2023/07/28 04:49:58;;;;;;;;;;;;;;;18.67;42.45;99503.13;4902680;28;99481;-72
2023/07/28 04:52:24;;;;;;;;;;;;;;;18.72;42.47;99497.44;4864757;28;98083;-78
2023/07/28 04:54:50;;;;;;;;;;;;;;;18.77;42.35;99501.88;4890008;28;98526;-72
2023/07/28 04:57:19;;;;;;;;;;;;;;;18.81;42.28;99506.28;4900006;28;99485;-72
2023/07/28 04:59:47;;;;;;;;;;;;;;;18.86;42.11;99502.53;4864259;28;97914;-77
2023/07/28 05:02:15;;;;;;;;;;;;;;;18.93;42.17;99505.47;4886096;28;98597;-78
2023/07/28 05:04:43;;;;;;;;;;;;;;;19.01;42.28;99512.72;4885874;28;98156;-72
2023/07/28 05:07:09;;;;;;;;;;;;;;;19.07;42.05;99516.00;4891584;28;98660;-72
2023/07/28 05:09:37;;;;;;;;;;;;;;;19.06;42.30;99515.22;4899652;28;98352;-78
2023/07/28 05:12:04;;;;;;;;;;;;;;;19.10;42.08;99523.53;4885057;28;98782;-71
2023/07/28 05:14:31;;;;;;;;;;;;;;;19.12;42.24;99521.22;4887619;28;98501;-71
2023/07/28 05:16:58;;;;;;;;;;;;;;;19.11;42.17;99516.91;4873649;28;98787;-78
2023/07/28 05:19:24;;;;;;;;;;;;;;;19.11;42.28;99523.16;4890762;28;98457;-78
2023/07/28 05:21:50;;;;;;;;;;;;;;;19.09;42.31;99521.91;4889163;28;98516;-78
2023/07/28 05:24:17;;;;;;;;;;;;;;;19.08;42.17;99523.84;4891176;28;98524;-72
2023/07/28 05:26:44;;;;;;;;;;;;;;;19.06;42.33;99528.06;4888319;28;98089;-72
2023/07/28 05:29:10;;;;;;;;;;;;;;;19.03;42.25;99528.78;4901221;28;98210;-71
2023/07/28 05:31:37;;;;;;;;;;;;;;;19.01;42.16;99525.59;4890988;28;98647;-72
2023/07/28 05:34:04;;;;;;;;;;;;;;;18.99;42.41;99528.66;4906337;28;98677;-71
2023/07/28 05:36:30;;;;;;;;;;;;;;;18.98;42.32;99529.81;4889909;28;98554;-77
2023/07/28 05:38:58;;;;;;;;;;;;;;;19.00;42.33;99529.47;4890755;28;98706;-77
2023/07/28 05:41:25;;;;;;;;;;;;;;;19.01;42.53;99536.50;4904874;28;98178;-71
2023/07/28 05:43:51;;;;;;;;;;;;;;;18.98;42.28;99531.72;4889347;28;100758;-71
2023/07/28 05:46:18;;;;;;;;;;;;;;;18.94;42.47;99533.56;4903677;28;98466;-71
2023/07/28 05:48:45;;;;;;;;;;;;;;;18.93;42.53;99527.31;4884484;28;98456;-77
2023/07/28 05:51:11;;;;;;;;;;;;;;;18.94;42.41;99533.56;4874770;28;99190;-78
2023/07/28 05:53:38;;;;;;;;;;;;;;;19.03;42.20;99532.28;4887254;28;98313;-78
2023/07/28 05:56:05;;;;;;;;;;;;;;;19.24;42.09;99534.03;4890561;28;98055;-71
2023/07/28 05:58:32;;;;;;;;;;;;;;;19.43;42.00;99528.72;4888371;28;101650;-71
2023/07/28 06:00:58;;;;;;;;;;;;;;;19.65;41.64;99532.88;4885590;28;98316;-77
2023/07/28 06:03:26;;;;;;;;;;;;;;;19.79;41.68;99535.94;4871495;28;98412;-71
2023/07/28 06:05:52;;;;;;;;;;;;;;;19.92;41.65;99530.41;4887621;28;97910;-78
2023/07/28 06:08:19;;;;;;;;;;;;;;;19.98;41.65;99540.72;4895538;28;98333;-77
2023/07/28 06:10:45;;;;;;;;;;;;;;;20.08;41.58;99553.06;4865149;28;97954;-72
2023/07/28 06:13:12;;;;;;;;;;;;;;;20.11;41.55;99557.84;4886432;28;98475;-77
2023/07/28 06:15:42;;;;;;;;;;;;;;;20.13;41.68;99552.84;4887676;28;98513;-77
2023/07/28 06:18:08;;;;;;;;;;;;;;;20.25;41.57;99541.00;4877959;28;97951;-76
2023/07/28 06:20:36;;;;;;;;;;;;;;;20.52;41.26;99553.00;4871465;28;98594;-77
2023/07/28 06:23:03;;;;;;;;;;;;;;;20.92;40.91;99557.41;4904938;28;98518;-78
2023/07/28 06:25:29;;;;;;;;;;;;;;;21.19;40.83;99548.22;4886093;28;100375;-72
2023/07/28 06:27:56;;;;;;;;;;;;;;;21.82;40.13;99549.84;4898726;28;98656;-72
2023/07/28 06:30:23;;;;;;;;;;;;;;;22.59;39.76;99545.22;4883260;28;99530;-78
2023/07/28 06:32:50;;;;;;;;;;;;;;;23.23;39.44;99557.13;4883070;28;98201;-79
2023/07/28 06:35:18;;;;;;;;;;;;;;;23.37;39.63;99560.00;4874799;28;98331;-72
2023/07/28 06:37:44;;;;;;;;;;;;;;;23.94;39.12;99565.38;4902554;28;100546;-73
2023/07/28 06:40:10;;;;;;;;;;;;;;;23.73;39.80;99572.22;4874263;28;98892;-72
2023/07/28 06:42:37;;;;;;;;;;;;;;;23.52;39.75;99581.00;4889546;28;98249;-72
2023/07/28 06:45:06;;;;;;;;;;;;;;;23.27;40.61;99588.19;4897995;28;98843;-72
2023/07/28 06:47:33;;;;;;;;;;;;;;;23.16;40.26;99588.03;4903903;28;98349;-72
2023/07/28 06:49:59;;;;;;;;;;;;;;;22.82;40.90;99594.59;4882764;28;98142;-78
2023/07/28 06:52:26;;;;;;;;;;;;;;;22.54;41.07;99591.03;4866383;28;98672;-71
2023/07/28 06:54:54;;;;;;;;;;;;;;;22.50;41.33;99592.94;4868827;28;98187;-71
2023/07/28 06:57:21;;;;;;;;;;;;;;;22.44;41.03;99590.88;4883656;28;99170;-78
2023/07/28 06:59:48;;;;;;;;;;;;;;;22.43;40.95;99594.78;4899271;28;98165;-78
2023/07/28 07:02:15;;;;;;;;;;;;;;;22.30;41.13;99592.22;4883728;28;99225;-79
2023/07/28 07:04:42;;;;;;;;;;;;;;;22.22;41.22;99592.50;4890186;28;98791;-79
2023/07/28 07:07:09;;;;;;;;;;;;;;;22.20;41.30;99598.31;4872944;28;98102;-78
2023/07/28 07:09:37;;;;;;;;;;;;;;;22.54;40.83;99593.78;4874573;28;98454;-72
2023/07/28 07:12:03;;;;;;;;;;;;;;;22.91;40.35;99595.13;4903867;28;99804;-72
2023/07/28 07:14:30;;;;;;;;;;;;;;;22.86;40.55;99596.22;4910518;28;98809;-71
2023/07/28 07:16:57;;;;;;;;;;;;;;;22.83;40.79;99596.97;4879728;28;99083;-72
2023/07/28 07:19:24;;;;;;;;;;;;;;;22.70;40.71;99609.31;4902735;28;98295;-72
2023/07/28 07:21:50;;;;;;;;;;;;;;;22.54;41.00;99612.22;4903961;28;98075;-72
2023/07/28 07:24:17;;;;;;;;;;;;;;;22.41;41.19;99619.09;4899693;28;98085;-78
2023/07/28 07:26:43;;;;;;;;;;;;;;;22.28;41.39;99621.19;4875048;28;98736;-78
2023/07/28 07:29:10;;;;;;;;;;;;;;;22.14;41.45;99620.97;4888588;28;100182;-72
2023/07/28 07:31:37;;;;;;;;;;;;;;;22.01;41.70;99628.56;4861707;28;98126;-77
2023/07/28 07:34:04;;;;;;;;;;;;;;;21.93;41.65;99627.63;4868233;28;98829;-71
2023/07/28 07:36:31;;;;;;;;;;;;;;;21.80;41.70;99635.19;4905932;28;98364;-72
2023/07/28 07:38:58;;;;;;;;;;;;;;;21.73;41.80;99639.75;4889915;28;99145;-77
2023/07/28 07:41:24;;;;;;;;;;;;;;;21.67;41.72;99630.25;4889566;28;98351;-77
2023/07/28 07:43:54;;;;;;;;;;;;;;;21.56;41.85;99632.78;4892017;28;98098;-77
2023/07/28 07:46:20;;;;;;;;;;;;;;;21.59;41.63;99625.78;4883309;28;99225;-72
2023/07/28 07:48:47;;;;;;;;;;;;;;;21.76;41.36;99634.34;4885034;28;99830;-71
2023/07/28 07:51:14;;;;;;;;;;;;;;;21.81;41.52;99641.47;4904977;28;98433;-78
2023/07/28 07:53:41;;;;;;;;;;;;;;;21.88;41.49;99643.56;4885389;28;98276;-77
2023/07/28 07:56:11;;;;;;;;;;;;;;;21.95;41.25;99638.22;4862097;28;98029;-72
2023/07/28 07:58:37;;;;;;;;;;;;;;;21.97;41.33;99644.16;4903913;28;100630;-72
2023/07/28 08:01:04;;;;;;;;;;;;;;;21.93;41.45;99646.84;4884025;28;98292;-72
2023/07/28 08:03:36;;;;;;;;;;;;;;;22.00;41.36;99654.38;4890549;28;99144;-77
2023/07/28 08:06:02;;;;;;;;;;;;;;;22.09;41.29;99648.69;4874708;28;98770;-76
2023/07/28 08:08:28;;;;;;;;;;;;;;;22.27;41.10;99647.84;4867599;28;98039;-76
2023/07/28 08:10:55;;;;;;;;;;;;;;;22.77;40.66;99651.44;4873527;28;99070;-75
2023/07/28 08:13:22;;;;;;;;;;;;;;;22.90;40.60;99649.25;4901958;28;98915;-75
2023/07/28 08:15:49;;;;;;;;;;;;;;;24.15;39.44;99645.38;4864022;28;98192;-76
2023/07/28 08:18:15;;;;;;;;;;;;;;;25.24;38.37;99645.88;4887697;28;98073;-76
2023/07/28 08:20:42;;;;;;;;;;;;;;;25.88;38.03;99642.59;4881586;28;98123;-76
2023/07/28 08:23:08;;;;;;;;;;;;;;;25.41;38.66;99644.38;4914865;28;98437;-75
2023/07/28 08:25:36;;;;;;;;;;;;;;;25.38;39.09;99653.41;4875646;28;98782;-75
2023/07/28 08:28:03;;;;;;;;;;;;;;;25.48;39.33;99651.91;4872557;28;100344;-75
2023/07/28 08:30:31;;;;;;;;;;;;;;;25.58;39.22;99653.91;4883512;28;98094;-71
2023/07/28 08:32:58;;;;;;;;;;;;;;;25.46;39.42;99658.56;4889118;28;98707;-72
2023/07/28 08:35:24;;;;;;;;;;;;;;;25.49;39.36;99657.03;4873361;28;98175;-76
2023/07/28 08:37:50;;;;;;;;;;;;;;;25.50;39.54;99658.59;4887289;28;98233;-74
2023/07/28 08:40:17;;;;;;;;;;;;;;;25.30;39.89;99662.81;4868467;28;98318;-75
2023/07/28 08:42:43;;;;;;;;;;;;;;;25.08;39.81;99664.66;4885961;28;98172;-71
2023/07/28 08:45:10;;;;;;;;;;;;;;;24.98;40.03;99660.66;4882882;28;98295;-75
2023/07/28 08:47:37;;;;;;;;;;;;;;;25.05;39.95;99657.16;4905810;28;98228;-75
2023/07/28 08:50:04;;;;;;;;;;;;;;;25.10;39.79;99649.31;4904143;28;98614;-71
2023/07/28 08:52:31;;;;;;;;;;;;;;;27.29;37.41;99650.53;4887105;28;98433;-76
2023/07/28 08:55:00;;;;;;;;;;;;;;;28.48;36.83;99651.50;4885476;28;99969;-71
2023/07/28 08:57:27;;;;;;;;;;;;;;;29.53;35.85;99661.19;4907638;28;98548;-71
2023/07/28 08:59:54;;;;;;;;;;;;;;;30.90;35.27;99661.59;4902440;28;98146;-74
2023/07/28 09:02:20;;;;;;;;;;;;;;;31.46;35.00;99672.09;4882302;28;98076;-72
2023/07/28 09:04:47;;;;;;;;;;;;;;;33.24;34.00;99676.28;4890738;28;101171;-74
2023/07/28 09:07:14;;;;;;;;;;;;;;;33.87;33.96;99676.91;4902449;28;98189;-71
2023/07/28 09:09:41;;;;;;;;;;;;;;;32.58;35.96;99676.81;4886299;28;98471;-72
2023/07/28 09:12:08;;;;;;;;;;;;;;;31.15;37.24;99677.03;4884784;28;98193;-74
2023/07/28 09:14:36;;;;;;;;;;;;;;;30.22;38.05;99668.25;4868169;28;99532;-73
2023/07/28 09:17:13;;;;;;;;;;;;;;;31.01;37.17;99664.97;4900519;28;98153;-74
2023/07/28 09:19:57;;;;;;;;;;;;;;;30.59;37.63;99665.69;4888101;28;98209;-74
2023/07/28 09:22:24;;;;;;;;;;;;;;;30.29;38.01;99670.13;4901055;28;98549;-72
2023/07/28 09:24:51;;;;;;;;;;;;;;;30.37;37.79;99668.78;4886089;28;98151;-73
2023/07/28 09:27:22;;;;;;;;;;;;;;;31.34;36.82;99672.75;4873577;28;98305;-73
2023/07/28 09:29:54;;;;;;;;;;;;;;;31.33;36.72;99665.59;4902555;28;98497;-72
2023/07/28 09:32:33;;;;;;;;;;;;;;;31.84;36.78;99672.50;4888721;28;100256;-74
2023/07/28 09:35:12;;;;;;;;;;;;;;;31.19;37.49;99672.19;4883511;28;98224;-72
2023/07/28 09:37:40;;;;;;;;;;;;;;;31.41;37.15;99670.59;4873151;28;98083;-74
2023/07/28 09:40:13;;;;;;;;;;;;;;;33.42;35.48;99684.16;4902117;28;98391;-71
2023/07/28 09:42:49;;;;;;;;;;;;;;;31.82;37.27;99677.69;4901895;28;98101;-74
2023/07/28 09:45:16;;;;;;;;;;;;;;;31.82;37.10;99674.13;4887036;28;97979;-74
2023/07/28 09:47:43;;;;;;;;;;;;;;;30.99;38.03;99675.72;4899967;28;98505;-73
2023/07/28 09:50:11;;;;;;;;;;;;;;;30.36;38.55;99681.13;4899683;28;99283;-71
2023/07/28 09:52:44;;;;;;;;;;;;;;;30.14;38.64;99679.84;4872786;28;98116;-71
2023/07/28 09:55:12;;;;;;;;;;;;;;;30.31;38.33;99682.41;4886958;28;98183;-72
2023/07/28 09:57:46;;;;;;;;;;;;;;;30.11;38.68;99689.03;4868940;28;99631;-74
2023/07/28 10:00:14;;;;;;;;;;;;;;;29.61;38.79;99684.13;4888227;28;98537;-73
2023/07/28 10:02:40;;;;;;;;;;;;;;;29.23;39.24;99693.22;4865670;28;98312;-74
2023/07/28 10:05:07;;;;;;;;;;;;;;;29.00;39.38;99691.06;4866728;28;98369;-73
2023/07/28 10:07:35;;;;;;;;;;;;;;;30.14;37.82;99688.94;4886854;28;98380;-71
2023/07/28 10:10:03;;;;;;;;;;;;;;;29.45;38.73;99681.91;4897854;28;98224;-72
2023/07/28 10:12:30;;;;;;;;;;;;;;;29.22;38.72;99691.66;4922525;28;98153;-74
2023/07/28 10:15:04;;;;;;;;;;;;;;;29.16;38.87;99687.78;4903053;28;98207;-71
2023/07/28 10:17:34;;;;;;;;;;;;;;;28.95;38.88;99685.94;4907351;28;98011;-72
2023/07/28 10:20:08;;;;;;;;;;;;;;;28.88;38.78;99680.47;4889531;28;98454;-70
2023/07/28 10:22:46;;;;;;;;;;;;;;;28.82;39.01;99682.91;4891814;28;98481;-71
2023/07/28 10:25:14;;;;;;;;;;;;;;;28.69;39.19;99690.16;4887499;28;100231;-71
2023/07/28 10:27:47;;;;;;;;;;;;;;;28.69;38.92;99684.63;4883446;28;99572;-73
2023/07/28 10:30:14;;;;;;;;;;;;;;;28.72;38.68;99680.22;4903467;28;98280;-73
2023/07/28 10:32:44;;;;;;;;;;;;;;;29.25;38.51;99676.97;4899584;28;98302;-71
2023/07/28 10:35:13;;;;;;;;;;;;;;;29.37;38.27;99677.63;4886292;28;99102;-74
2023/07/28 10:37:43;;;;;;;;;;;;;;;29.28;38.53;99692.00;4913676;28;98113;-73
2023/07/28 10:40:32;;;;;;;;;;;;;;;29.43;38.14;99687.06;4882953;28;98565;-74
2023/07/28 10:42:59;;;;;;;;;;;;;;;29.41;38.65;99693.03;4903476;28;98007;-74
2023/07/28 10:45:26;;;;;;;;;;;;;;;29.28;38.71;99689.25;4885068;28;98001;-74
2023/07/28 10:47:55;;;;;;;;;;;;;;;29.57;38.50;99686.94;4901086;28;98211;-74
2023/07/28 10:50:21;;;;;;;;;;;;;;;29.72;38.06;99691.13;4918831;28;98525;-71
2023/07/28 10:52:47;;;;;;;;;;;;;;;29.47;38.47;99690.59;4903442;28;98387;-72
2023/07/28 10:55:17;;;;;;;;;;;;;;;29.37;38.63;99694.28;4883121;28;98849;-71
2023/07/28 10:57:43;;;;;;;;;;;;;;;29.31;38.60;99703.03;4898741;28;98005;-75
2023/07/28 11:00:14;;;;;;;;;;;;;;;28.93;38.75;99707.00;4903290;28;98142;-74
2023/07/28 11:02:44;;;;;;;;;;;;;;;28.64;39.01;99712.75;4887316;28;98241;-71
2023/07/28 11:05:22;;;;;;;;;;;;;;;28.46;39.17;99703.81;4890730;28;98410;-74
2023/07/28 11:07:48;;;;;;;;;;;;;;;28.22;39.30;99703.53;4883286;28;100807;-72
2023/07/28 11:10:15;;;;;;;;;;;;;;;28.04;39.75;99694.53;4901877;28;98578;-75
2023/07/28 11:12:44;;;;;;;;;;;;;;;28.01;39.34;99692.56;4884117;28;99577;-74
2023/07/28 11:15:11;;;;;;;;;;;;;;;27.86;39.70;99686.28;4867479;28;98143;-74
2023/07/28 11:17:42;;;;;;;;;;;;;;;27.83;39.33;99696.22;4874602;28;99290;-71
2023/07/28 11:20:16;;;;;;;;;;;;;;;28.13;39.11;99692.88;4903401;28;99976;-75
2023/07/28 11:22:43;;;;;;;;;;;;;;;28.14;39.21;99699.22;4919337;28;98125;-74
2023/07/28 11:25:10;;;;;;;;;;;;;;;28.16;38.93;99696.81;4903012;28;98392;-72
2023/07/28 11:27:37;;;;;;;;;;;;;;;28.13;39.12;99697.63;4874513;28;98512;-71
2023/07/28 11:30:03;;;;;;;;;;;;;;;28.00;39.48;99691.00;4872074;28;98480;-74
2023/07/28 11:32:34;;;;;;;;;;;;;;;28.76;38.69;99689.28;4906710;28;98024;-74
2023/07/28 11:35:08;;;;;;;;;;;;;;;30.11;37.15;99703.69;4875684;28;98929;-72
2023/07/28 11:37:39;;;;;;;;;;;;;;;29.43;38.07;99709.28;4906277;28;98187;-72
2023/07/28 11:40:10;;;;;;;;;;;;;;;29.24;38.21;99714.25;4886329;28;99029;-72
2023/07/28 11:42:41;;;;;;;;;;;;;;;29.98;37.51;99695.13;4900890;28;98868;-72
2023/07/28 11:45:09;;;;;;;;;;;;;;;31.00;36.52;99688.41;4853195;28;99139;-75
2023/07/28 11:47:36;;;;;;;;;;;;;;;32.37;35.33;99692.81;4793454;28;98447;-74
2023/07/28 11:50:02;;;;;;;;;;;;;;;32.84;35.63;99692.47;4846019;28;98011;-72
2023/07/28 11:52:37;;;;;;;;;;;;;;;32.88;35.85;99690.38;4844935;28;98624;-77
2023/07/28 11:55:05;;;;;;;;;;;;;;;31.73;37.19;99680.28;4846375;28;98507;-72
2023/07/28 11:57:32;;;;;;;;;;;;;;;31.69;37.26;99690.72;4830300;28;98455;-73
2023/07/28 11:59:59;;;;;;;;;;;;;;;32.65;36.14;99685.78;4807611;28;98915;-72
2023/07/28 12:02:26;;;;;;;;;;;;;;;32.80;36.07;99689.00;4853629;28;99290;-76
2023/07/28 12:04:54;;;;;;;;;;;;;;;33.77;35.43;99686.41;4841457;28;98243;-72
2023/07/28 12:07:40;;;;;;;;;;;;;;;34.50;35.17;99683.78;4814770;28;98492;-72
2023/07/28 12:10:08;;;;;;;;;;;;;;;33.64;35.94;99689.16;4825891;28;98442;-72
2023/07/28 12:12:47;;;;;;;;;;;;;;;32.59;37.53;99678.38;4843867;28;98392;-76
2023/07/28 12:15:27;;;;;;;;;;;;;;;33.12;36.88;99681.81;4830052;28;98442;-73
2023/07/28 12:18:15;;;;;;;;;;;;;;;33.56;36.05;99687.81;4828342;28;98171;-73
2023/07/28 12:20:49;;;;;;;;;;;;;;;33.69;36.43;99691.44;4809661;28;98518;-76
2023/07/28 12:23:17;;;;;;;;;;;;;;;33.33;36.87;99694.44;4823879;28;100669;-76
2023/07/28 12:25:43;;;;;;;;;;;;;;;32.50;37.22;99687.34;4838462;28;98747;-73
2023/07/28 12:28:10;;;;;;;;;;;;;;;32.72;37.27;99693.97;4846032;28;99756;-73
2023/07/28 12:30:37;;;;;;;;;;;;;;;33.22;36.78;99681.53;4896636;28;100016;-76
2023/07/28 12:33:04;;;;;;;;;;;;;;;33.28;36.65;99690.13;4900226;28;98171;-76
2023/07/28 12:35:32;;;;;;;;;;;;;;;32.38;37.20;99685.22;4906537;28;100482;-73
2023/07/28 12:37:59;;;;;;;;;;;;;;;31.84;37.97;99686.41;4901230;28;98403;-76
2023/07/28 12:40:28;;;;;;;;;;;;;;;31.60;38.15;99690.50;4896262;28;98878;-76
2023/07/28 12:42:54;;;;;;;;;;;;;;;31.08;38.47;99691.06;4877329;28;98211;-76
2023/07/28 12:45:22;;;;;;;;;;;;;;;30.64;38.70;99695.78;4867417;28;100634;-75
2023/07/28 12:47:49;;;;;;;;;;;;;;;30.53;38.60;99701.50;4899381;28;98525;-76